createdAt,value
2022-11-12T00:02:27.866Z,57.78
2022-11-12T00:05:14.999Z,57.85
2022-11-12T00:08:02.371Z,57.97
2022-11-12T00:10:49.242Z,58.16
2022-11-12T00:13:35.772Z,58.17
2022-11-12T00:16:22.435Z,58.15
2022-11-12T00:19:09.375Z,58.13
2022-11-12T00:21:56.338Z,58.02
2022-11-12T00:24:42.734Z,58.01
2022-11-12T00:27:29.007Z,57.75
2022-11-12T00:30:16.837Z,57.70
2022-11-12T00:33:04.672Z,57.83
2022-11-12T00:35:50.897Z,57.65
2022-11-12T00:38:37.529Z,57.58
2022-11-12T00:41:24.072Z,57.71
2022-11-12T00:44:11.089Z,57.71
2022-11-12T00:46:57.492Z,57.80
2022-11-12T00:49:43.821Z,57.75
2022-11-12T00:52:30.345Z,57.66
2022-11-12T00:55:16.801Z,57.49
2022-11-12T00:58:03.624Z,57.62
2022-11-12T01:00:50.648Z,57.75
2022-11-12T01:03:44.422Z,57.72
2022-11-12T01:06:31.066Z,57.65
2022-11-12T01:09:18.561Z,57.78
2022-11-12T01:12:06.317Z,57.73
2022-11-12T01:14:53.097Z,57.91
2022-11-12T01:17:40.315Z,57.95
2022-11-12T01:20:26.492Z,57.85
2022-11-12T01:23:13.129Z,57.85
2022-11-12T01:26:04.292Z,57.70
2022-11-12T01:28:51.756Z,57.74
2022-11-12T01:31:39.374Z,57.71
2022-11-12T01:34:26.609Z,57.89
2022-11-12T01:37:13.715Z,57.90
2022-11-12T01:40:00.365Z,57.85
2022-11-12T01:42:53.941Z,57.63
2022-11-12T01:45:46.636Z,57.55
2022-11-12T01:48:39.736Z,57.53
2022-11-12T01:51:37.570Z,57.64
2022-11-12T01:54:27.109Z,57.66
2022-11-12T01:57:15.733Z,57.64
2022-11-12T02:00:10.075Z,57.67
2022-11-12T02:03:01.061Z,57.60
2022-11-12T02:05:52.044Z,57.62
2022-11-12T02:08:40.267Z,57.68
2022-11-12T02:11:26.841Z,57.58
2022-11-12T02:14:14.431Z,57.62
2022-11-12T02:17:01.504Z,57.56
2022-11-12T02:19:48.728Z,57.67
2022-11-12T02:22:35.381Z,57.60
2022-11-12T02:25:24.633Z,57.56
2022-11-12T02:28:10.939Z,57.51
2022-11-12T02:30:57.712Z,57.51
2022-11-12T02:33:44.569Z,57.59
2022-11-12T02:36:31.335Z,57.54
2022-11-12T02:39:17.904Z,57.59
2022-11-12T02:42:04.819Z,57.47
2022-11-12T02:44:51.532Z,57.37
2022-11-12T02:47:38.216Z,57.34
2022-11-12T02:50:25.067Z,57.52
2022-11-12T02:53:11.966Z,57.58
2022-11-12T02:56:00.204Z,57.45
2022-11-12T02:58:47.396Z,57.62
2022-11-12T03:01:34.620Z,57.61
2022-11-12T03:04:21.198Z,57.51
2022-11-12T03:07:08.189Z,57.49
2022-11-12T03:09:54.878Z,57.46
2022-11-12T03:12:41.145Z,57.64
2022-11-12T03:15:29.634Z,57.50
2022-11-12T03:18:16.641Z,57.71
2022-11-12T03:21:03.515Z,57.91
2022-11-12T03:23:50.235Z,57.79
2022-11-12T03:26:37.008Z,57.62
2022-11-12T03:29:23.967Z,57.72
2022-11-12T03:32:10.581Z,57.82
2022-11-12T03:34:58.128Z,57.89
2022-11-12T03:38:05.727Z,57.88
2022-11-12T03:40:52.503Z,57.91
2022-11-12T03:43:39.549Z,57.76
2022-11-12T03:46:26.426Z,57.85
2022-11-12T03:49:13.226Z,57.91
2022-11-12T03:51:59.489Z,57.97
2022-11-12T03:54:46.105Z,57.79
2022-11-12T03:57:33.097Z,57.93
2022-11-12T04:00:22.726Z,57.73
2022-11-12T04:03:09.098Z,57.74
2022-11-12T04:06:15.085Z,57.80
2022-11-12T04:09:01.540Z,57.99
2022-11-12T04:11:48.303Z,57.86
2022-11-12T04:14:35.378Z,57.85
2022-11-12T04:17:40.828Z,57.89
2022-11-12T04:21:06.252Z,57.91
2022-11-12T04:23:53.202Z,58.02
2022-11-12T04:26:40.091Z,57.96
2022-11-12T04:29:46.015Z,57.76
2022-11-12T04:32:36.962Z,57.86
2022-11-12T04:35:27.730Z,57.98
2022-11-12T04:38:14.121Z,57.89
2022-11-12T04:41:19.811Z,57.94
2022-11-12T04:44:25.479Z,57.94
2022-11-12T04:47:12.287Z,57.86
2022-11-12T04:49:59.617Z,57.70
2022-11-12T04:52:46.315Z,57.76
2022-11-12T04:55:33.331Z,57.87
2022-11-12T04:58:20.323Z,57.94
2022-11-12T05:01:07.107Z,57.83
2022-11-12T05:03:53.462Z,57.93
2022-11-12T05:06:52.168Z,58.03
2022-11-12T05:09:39.146Z,57.90
2022-11-12T05:12:26.993Z,58.10
2022-11-12T05:15:13.535Z,58.24
2022-11-12T05:18:00.831Z,57.95
2022-11-12T05:20:48.029Z,58.25
2022-11-12T05:23:34.207Z,58.53
2022-11-12T05:26:20.656Z,58.29
2022-11-12T05:29:08.921Z,58.38
2022-11-12T05:31:56.343Z,58.42
2022-11-12T05:34:43.456Z,58.49
2022-11-12T05:37:30.904Z,58.42
2022-11-12T05:40:17.562Z,58.35
2022-11-12T05:43:04.051Z,58.09
2022-11-12T05:45:50.640Z,58.23
2022-11-12T05:48:37.095Z,57.90
2022-11-12T05:51:24.697Z,57.87
2022-11-12T05:54:12.470Z,57.98
2022-11-12T05:56:59.661Z,57.81
2022-11-12T05:59:46.163Z,57.91
2022-11-12T06:02:32.799Z,57.97
2022-11-12T06:05:20.256Z,57.97
2022-11-12T06:08:07.280Z,58.08
2022-11-12T06:10:55.512Z,57.84
2022-11-12T06:13:42.438Z,57.88
2022-11-12T06:16:31.382Z,57.95
2022-11-12T06:19:18.408Z,57.82
2022-11-12T06:22:05.001Z,58.01
2022-11-12T06:24:51.733Z,57.94
2022-11-12T06:27:38.798Z,57.97
2022-11-12T06:30:26.012Z,57.85
2022-11-12T06:33:12.479Z,57.59
2022-11-12T06:36:03.423Z,57.49
2022-11-12T06:38:50.393Z,57.57
2022-11-12T06:41:36.944Z,57.64
2022-11-12T06:44:23.312Z,57.43
2022-11-12T06:47:10.974Z,57.44
2022-11-12T06:49:57.814Z,57.63
2022-11-12T06:52:44.004Z,57.66
2022-11-12T06:55:30.528Z,57.78
2022-11-12T06:58:17.541Z,57.59
2022-11-12T07:01:17.493Z,57.35
2022-11-12T07:04:04.415Z,57.71
2022-11-12T07:06:51.586Z,57.44
2022-11-12T07:09:38.073Z,57.42
2022-11-12T07:12:25.226Z,57.47
2022-11-12T07:15:11.680Z,57.38
2022-11-12T07:17:58.040Z,57.51
2022-11-12T07:20:44.699Z,57.43
2022-11-12T07:23:34.223Z,57.21
2022-11-12T07:26:24.515Z,57.09
2022-11-12T07:29:11.461Z,57.22
2022-11-12T07:31:58.790Z,57.24
2022-11-12T07:34:45.552Z,57.19
2022-11-12T07:37:33.701Z,57.29
2022-11-12T07:40:22.017Z,57.39
2022-11-12T07:43:08.668Z,57.34
2022-11-12T07:46:07.513Z,57.18
2022-11-12T07:49:04.145Z,57.23
2022-11-12T07:51:50.925Z,57.58
2022-11-12T07:54:37.706Z,57.23
2022-11-12T07:57:25.126Z,57.18
2022-11-12T08:00:12.574Z,56.97
2022-11-12T08:03:05.064Z,56.98
2022-11-12T08:05:54.418Z,57.34
2022-11-12T08:08:40.993Z,57.32
2022-11-12T08:11:27.858Z,57.30
2022-11-12T08:14:14.758Z,57.24
2022-11-12T08:17:01.420Z,57.46
2022-11-12T08:19:48.032Z,57.68
2022-11-12T08:22:34.376Z,57.30
2022-11-12T08:25:20.779Z,57.36
2022-11-12T08:28:07.794Z,57.32
2022-11-12T08:30:55.011Z,57.36
2022-11-12T12:11:01.167Z,56.17
2022-11-12T12:14:52.262Z,56.18
2022-11-12T12:24:05.795Z,56.10
2022-11-12T18:05:10.399Z,56.74
2022-11-12T18:07:58.036Z,56.75
2022-11-12T18:10:47.098Z,56.74
2022-11-12T18:13:33.827Z,56.75
2022-11-12T18:16:31.688Z,56.55
2022-11-12T18:19:18.710Z,56.74
2022-11-12T18:22:05.774Z,56.64
2022-11-12T18:24:53.147Z,56.54
2022-11-12T18:27:39.742Z,56.78
2022-11-12T18:30:26.653Z,56.77
2022-11-12T18:33:13.512Z,56.81
2022-11-12T18:36:12.669Z,56.71
2022-11-12T18:39:01.056Z,56.85
2022-11-12T18:41:47.654Z,56.80
2022-11-12T18:44:34.328Z,56.98
2022-11-12T18:47:23.215Z,56.78
2022-11-12T18:50:10.677Z,56.79
2022-11-12T18:52:57.270Z,57.01
2022-11-12T18:55:44.399Z,57.06
2022-11-12T18:58:35.140Z,57.08
2022-11-12T19:01:25.311Z,57.05
2022-11-12T19:04:12.079Z,57.19
2022-11-12T19:06:59.158Z,57.31
2022-11-12T19:09:45.675Z,57.14
2022-11-12T19:12:32.202Z,57.00
2022-11-12T19:15:24.049Z,56.98
2022-11-12T19:18:15.169Z,57.13
2022-11-12T19:21:09.606Z,57.21
2022-11-12T19:23:57.672Z,57.15
2022-11-12T19:26:44.839Z,57.05
2022-11-12T19:29:32.730Z,57.20
2022-11-12T19:32:23.687Z,57.21
2022-11-12T19:35:15.005Z,57.45
2022-11-12T19:38:02.883Z,57.09
2022-11-12T19:40:49.835Z,57.32
2022-11-12T19:43:40.512Z,57.35
2022-11-12T19:46:27.548Z,57.50
2022-11-12T19:49:14.497Z,57.49
2022-11-12T19:52:03.059Z,57.56
2022-11-12T19:54:51.140Z,57.53
2022-11-12T19:57:37.916Z,57.35
2022-11-12T20:00:25.259Z,57.40
2022-11-12T20:03:12.279Z,57.31
2022-11-12T20:06:08.992Z,57.35
2022-11-12T20:09:04.133Z,57.19
2022-11-12T20:11:51.167Z,57.46
2022-11-12T20:14:37.845Z,57.43
2022-11-12T20:17:24.410Z,57.29
2022-11-12T20:20:11.863Z,57.23
2022-11-12T20:22:58.823Z,57.31
2022-11-12T20:25:46.248Z,57.34
2022-11-12T20:28:38.498Z,57.29
2022-11-12T20:31:25.115Z,57.33
2022-11-12T20:34:13.165Z,57.33
2022-11-12T20:36:59.971Z,57.30
2022-11-12T20:39:47.259Z,57.24
2022-11-12T20:42:33.737Z,57.04
2022-11-12T20:45:21.187Z,57.00
